createdAt,value
2022-09-10T00:04:20.424Z,22.23
2022-09-10T00:14:31.189Z,17.00
2022-09-10T00:19:37.399Z,13.23
2022-09-10T00:24:42.854Z,17.13
2022-09-10T00:29:48.111Z,18.50
2022-09-10T00:34:53.613Z,16.53
2022-09-10T00:39:59.085Z,16.45
2022-09-10T00:50:28.687Z,29.53
2022-09-10T00:55:37.353Z,35.53
2022-09-10T01:00:43.578Z,36.83
2022-09-10T01:05:51.006Z,17.95
2022-09-10T01:11:14.250Z,29.15
2022-09-10T01:16:31.950Z,46.35
2022-09-10T01:22:17.616Z,33.50
2022-09-10T01:27:50.213Z,42.40
2022-09-10T01:33:49.477Z,51.22
2022-09-10T01:39:03.982Z,46.38
2022-09-10T01:44:50.094Z,46.67
2022-09-10T01:50:11.436Z,41.97
2022-09-10T01:55:43.878Z,42.25
2022-09-10T02:01:02.968Z,47.45
2022-09-10T02:06:13.454Z,48.58
2022-09-10T02:11:20.160Z,38.05
2022-09-10T02:16:37.132Z,39.63
2022-09-10T02:21:43.691Z,41.28
2022-09-10T02:26:49.307Z,43.30
2022-09-10T02:31:56.015Z,48.10
2022-09-10T02:37:01.884Z,39.30
2022-09-10T02:42:08.640Z,34.95
2022-09-10T02:47:14.375Z,41.13
2022-09-10T02:57:25.928Z,35.63
2022-09-10T03:02:31.562Z,38.60
2022-09-10T03:07:37.210Z,35.95
2022-09-10T03:12:43.598Z,41.45
2022-09-10T03:17:49.938Z,26.88
2022-09-10T03:22:58.214Z,34.33
2022-09-10T03:28:03.944Z,27.30
2022-09-10T03:33:10.148Z,43.22
2022-09-10T03:43:23.944Z,49.10
2022-09-10T03:48:32.033Z,32.47
2022-09-10T03:53:37.660Z,50.40
2022-09-10T03:58:44.632Z,39.08
2022-09-10T04:03:50.965Z,32.85
2022-09-10T04:08:56.701Z,41.58
2022-09-10T04:19:07.673Z,41.15
2022-09-10T04:24:17.116Z,41.40
2022-09-10T04:29:24.518Z,41.45
2022-09-10T04:34:29.843Z,60.25
2022-09-10T04:39:35.418Z,35.85
2022-09-10T04:44:41.972Z,49.88
2022-09-10T04:49:47.794Z,59.00
2022-09-10T04:54:54.441Z,53.20
2022-09-10T05:00:00.344Z,59.65
2022-09-10T05:05:06.982Z,43.13
2022-09-10T05:10:12.741Z,41.80
2022-09-10T05:15:18.788Z,44.58
2022-09-10T05:20:25.406Z,60.72
2022-09-10T05:25:31.635Z,58.20
2022-09-10T05:30:38.177Z,51.05
2022-09-10T05:35:44.270Z,46.45
2022-09-10T05:40:51.915Z,67.10
2022-09-10T05:45:58.608Z,66.80
2022-09-10T05:51:04.705Z,48.10
2022-09-10T05:56:10.948Z,48.03
2022-09-10T06:01:19.169Z,46.50
2022-09-10T06:06:29.579Z,47.75
2022-09-10T06:11:41.138Z,44.70
2022-09-10T06:16:48.061Z,44.67
2022-09-10T06:21:54.630Z,45.78
2022-09-10T06:27:00.886Z,51.38
2022-09-10T06:32:09.205Z,42.72
2022-09-10T06:42:20.672Z,44.93
2022-09-10T06:53:22.911Z,44.35
2022-09-10T06:58:30.677Z,45.72
2022-09-10T07:03:36.678Z,43.80
2022-09-10T07:08:42.834Z,38.55
2022-09-10T07:13:59.222Z,33.00
2022-09-10T07:19:08.419Z,34.67
2022-09-10T07:24:18.588Z,39.63
2022-09-10T07:29:56.602Z,34.15
2022-09-10T07:35:03.358Z,32.40
2022-09-10T07:40:11.355Z,36.25
2022-09-10T07:45:21.691Z,34.00
2022-09-10T07:50:30.354Z,28.27
2022-09-10T07:55:39.514Z,28.73
2022-09-10T08:00:46.260Z,30.88
2022-09-10T08:05:52.160Z,27.83
2022-09-10T08:10:58.459Z,30.85
2022-09-10T08:16:11.000Z,28.73
2022-09-10T08:21:20.060Z,26.20
2022-09-10T08:26:29.859Z,26.83
2022-09-10T08:31:38.517Z,27.50
2022-09-10T08:36:53.124Z,27.42
2022-09-10T08:42:16.097Z,25.95
2022-09-10T08:47:35.931Z,30.15
2022-09-10T08:52:56.692Z,25.33
2022-09-10T08:58:14.410Z,26.17
2022-09-10T09:03:44.377Z,27.43
2022-09-10T09:08:52.516Z,29.40
2022-09-10T09:14:38.301Z,27.08
2022-09-10T09:20:24.579Z,26.90
2022-09-10T09:25:40.505Z,27.35
2022-09-10T09:36:04.655Z,25.85
2022-09-10T09:41:43.470Z,28.40
2022-09-10T09:46:51.325Z,26.60
2022-09-10T09:51:58.581Z,30.90
2022-09-10T09:57:04.548Z,27.88
2022-09-10T10:07:35.357Z,30.50
2022-09-10T10:12:50.549Z,31.42
2022-09-10T10:17:56.523Z,28.43
2022-09-10T10:23:03.283Z,28.05
2022-09-10T10:28:25.591Z,36.97
2022-09-10T10:33:35.004Z,33.15
2022-09-10T10:38:43.542Z,33.65
2022-09-10T10:43:57.803Z,30.33
2022-09-10T10:49:45.728Z,32.28
2022-09-10T10:55:13.744Z,33.05
2022-09-10T11:00:21.710Z,30.08
2022-09-10T11:05:40.104Z,28.52
2022-09-10T11:10:56.156Z,35.33
2022-09-10T11:16:18.690Z,28.67
2022-09-10T11:21:41.881Z,31.08
2022-09-10T11:27:06.599Z,28.73
2022-09-10T11:32:25.992Z,25.58
2022-09-10T11:37:49.537Z,34.03
2022-09-10T11:43:02.111Z,35.95
2022-09-10T11:48:21.444Z,30.67
2022-09-10T11:53:27.762Z,27.58
2022-09-10T11:58:45.534Z,30.08
2022-09-10T12:04:10.436Z,34.22
2022-09-10T12:09:21.151Z,32.58
2022-09-10T12:14:27.123Z,37.40
2022-09-10T12:19:47.786Z,35.47
2022-09-10T12:25:02.148Z,34.70
2022-09-10T12:30:34.928Z,37.78
2022-09-10T12:35:45.324Z,31.00
2022-09-10T12:41:00.630Z,31.30
2022-09-10T12:46:15.072Z,43.20
2022-09-10T12:51:20.727Z,38.45
2022-09-10T12:56:47.544Z,42.38
2022-09-10T13:01:54.273Z,40.10
2022-09-10T13:07:03.013Z,39.95
2022-09-10T13:12:24.242Z,32.72
2022-09-10T13:17:46.332Z,37.42
2022-09-10T13:23:10.489Z,37.40
2022-09-10T13:28:32.159Z,44.22
2022-09-10T13:33:55.784Z,41.70
2022-09-10T13:39:21.942Z,49.10
2022-09-10T13:44:40.587Z,48.55
2022-09-10T13:49:57.457Z,50.55
2022-09-10T13:55:04.740Z,54.10
2022-09-10T14:00:20.406Z,41.00
2022-09-10T14:05:35.481Z,47.55
2022-09-10T14:10:52.095Z,53.47
2022-09-10T14:16:00.905Z,53.90
2022-09-10T14:21:07.482Z,54.08
2022-09-10T14:26:30.697Z,50.25
2022-09-10T14:31:39.149Z,50.85
2022-09-10T14:36:44.702Z,54.33
2022-09-10T14:47:12.224Z,47.00
2022-09-10T14:52:18.701Z,46.88
2022-09-10T14:57:24.778Z,41.47
2022-09-10T15:02:31.202Z,50.33
2022-09-10T15:07:37.052Z,42.58
2022-09-10T15:12:45.888Z,48.17
2022-09-10T15:17:51.596Z,43.42
2022-09-10T15:28:03.274Z,45.03
2022-09-10T15:33:09.375Z,45.17
2022-09-10T15:38:18.648Z,38.42
2022-09-10T15:43:28.113Z,43.13
2022-09-10T15:48:35.158Z,44.80
2022-09-10T15:53:41.792Z,51.92
2022-09-10T15:58:59.005Z,46.70
2022-09-10T16:04:05.245Z,48.92
2022-09-10T16:09:14.818Z,37.05
2022-09-10T16:14:20.358Z,40.92
2022-09-10T16:19:25.902Z,47.92
2022-09-10T16:24:33.513Z,42.90
2022-09-10T16:29:39.674Z,50.95
2022-09-10T16:34:45.250Z,43.67
2022-09-10T16:39:50.486Z,47.95
2022-09-10T16:44:55.977Z,51.65
2022-09-10T16:50:01.348Z,50.55
2022-09-10T16:55:08.502Z,35.17
2022-09-10T17:00:17.982Z,45.00
2022-09-10T17:05:24.990Z,41.08
2022-09-10T17:10:30.216Z,38.08
2022-09-10T17:15:36.898Z,39.20
2022-09-10T17:20:46.269Z,38.33
2022-09-10T17:25:53.856Z,37.22
2022-09-10T17:30:59.554Z,37.80
2022-09-10T17:36:06.369Z,33.20
2022-09-10T17:41:14.431Z,36.00
2022-09-10T17:46:22.801Z,37.25
2022-09-10T17:51:35.480Z,33.45
2022-09-10T17:56:41.008Z,34.63
2022-09-10T18:01:46.180Z,40.10
2022-09-10T18:06:52.519Z,39.75
2022-09-10T18:11:58.519Z,32.67
2022-09-10T18:17:03.724Z,39.80
2022-09-10T18:22:09.365Z,45.30
2022-09-10T18:32:19.672Z,36.85
2022-09-10T18:42:30.313Z,42.83
2022-09-10T18:47:44.505Z,37.85
2022-09-10T18:52:50.572Z,44.15
2022-09-10T18:57:56.162Z,39.88
2022-09-10T19:03:01.404Z,42.90
2022-09-10T19:08:09.265Z,47.75
2022-09-10T19:13:14.405Z,44.50
2022-09-10T19:18:19.848Z,46.38
2022-09-10T19:23:26.354Z,46.37
2022-09-10T19:28:35.886Z,44.85
2022-09-10T19:33:41.536Z,45.50
2022-09-10T19:38:48.551Z,47.30
2022-09-10T19:43:55.977Z,41.00
2022-09-10T19:49:02.204Z,40.85
2022-09-10T19:54:08.548Z,30.30
2022-09-10T19:59:14.330Z,35.92
2022-09-10T20:04:19.559Z,28.42
2022-09-10T20:09:25.683Z,34.30
2022-09-10T20:14:30.745Z,33.30
2022-09-10T20:19:36.297Z,32.05
2022-09-10T20:24:41.784Z,37.70
2022-09-10T20:29:47.779Z,36.03
2022-09-10T20:34:53.285Z,29.42
2022-09-10T20:39:59.294Z,29.20
2022-09-10T20:45:04.800Z,32.22
2022-09-10T20:50:11.110Z,39.33
2022-09-10T20:55:17.312Z,29.90
2022-09-10T21:00:22.461Z,32.75
2022-09-10T21:05:27.744Z,38.00
2022-09-10T21:10:36.542Z,33.17
2022-09-10T21:15:42.033Z,40.97
2022-09-10T21:25:55.046Z,40.20
2022-09-10T21:31:13.101Z,38.35
2022-09-10T21:36:21.849Z,40.50
2022-09-10T21:41:44.623Z,45.92
2022-09-10T21:46:51.141Z,40.67
2022-09-10T21:51:56.475Z,38.80
2022-09-10T21:57:05.877Z,35.05
2022-09-10T22:02:15.436Z,41.17
2022-09-10T22:07:26.016Z,43.17
2022-09-10T22:12:39.709Z,36.80
2022-09-10T22:18:36.077Z,39.75
2022-09-10T22:23:59.946Z,38.90
2022-09-10T22:29:41.849Z,35.63
2022-09-10T22:35:04.126Z,44.65
2022-09-10T22:41:14.627Z,35.22
2022-09-10T22:46:40.891Z,36.15
2022-09-10T22:52:22.380Z,35.38
2022-09-10T22:58:21.242Z,39.00
2022-09-10T23:04:50.401Z,39.60
2022-09-10T23:10:14.050Z,37.20
2022-09-10T23:15:22.775Z,36.30
2022-09-10T23:20:29.298Z,38.15
2022-09-10T23:25:37.798Z,29.10
2022-09-10T23:35:54.283Z,28.38
2022-09-10T23:41:04.404Z,30.55
2022-09-10T23:46:13.336Z,27.08
2022-09-10T23:51:22.096Z,27.92
2022-09-10T23:56:28.387Z,25.08
